createdAt,value
2018-01-04T00:01:37.056Z,34.08
2018-01-04T00:04:05.354Z,27.15
2018-01-04T00:06:33.562Z,23.98
2018-01-04T00:09:01.843Z,24.10
2018-01-04T00:11:30.139Z,34.50
2018-01-04T00:13:58.325Z,31.90
2018-01-04T00:16:26.516Z,33.53
2018-01-04T00:18:55.018Z,23.90
2018-01-04T00:21:23.208Z,19.15
2018-01-04T00:23:51.235Z,29.77
2018-01-04T00:26:19.256Z,29.40
2018-01-04T00:28:47.497Z,47.00
2018-01-04T00:31:15.683Z,22.70
2018-01-04T00:33:43.777Z,27.40
2018-01-04T00:36:11.976Z,25.02
2018-01-04T00:38:40.177Z,14.38
2018-01-04T00:41:08.457Z,24.80
2018-01-04T00:43:36.751Z,24.15
2018-01-04T00:46:05.062Z,20.62
2018-01-04T00:48:33.356Z,17.80
2018-01-04T00:51:01.780Z,24.77
2018-01-04T00:53:30.145Z,27.95
2018-01-04T00:55:58.442Z,22.85
2018-01-04T00:58:26.551Z,19.33
2018-01-04T01:00:54.737Z,32.70
2018-01-04T01:03:22.929Z,28.25
2018-01-04T01:05:51.048Z,34.28
2018-01-04T01:08:19.041Z,18.95
2018-01-04T01:10:47.304Z,25.95
2018-01-04T01:13:15.398Z,26.92
2018-01-04T01:15:43.700Z,22.35
2018-01-04T01:18:11.898Z,27.25
2018-01-04T01:20:40.188Z,22.20
2018-01-04T01:23:08.380Z,24.48
2018-01-04T01:25:36.685Z,22.10
2018-01-04T01:28:04.879Z,22.90
2018-01-04T01:30:33.275Z,30.83
2018-01-04T01:33:01.575Z,15.93
2018-01-04T01:35:29.770Z,25.20
2018-01-04T01:37:57.954Z,23.48
2018-01-04T01:40:26.146Z,25.92
2018-01-04T01:42:54.246Z,26.62
2018-01-04T01:45:22.538Z,28.10
2018-01-04T01:47:50.738Z,24.00
2018-01-04T01:50:18.679Z,22.85
2018-01-04T01:52:46.926Z,17.37
2018-01-04T01:55:15.222Z,16.58
2018-01-04T01:57:43.401Z,16.52
2018-01-04T02:00:11.715Z,16.60
2018-01-04T02:02:40.016Z,20.88
2018-01-04T02:05:08.308Z,21.60
2018-01-04T02:07:36.694Z,26.10
2018-01-04T02:10:05.002Z,17.73
2018-01-04T02:12:33.301Z,15.98
2018-01-04T02:15:01.602Z,21.35
2018-01-04T02:17:29.995Z,23.25
2018-01-04T02:19:58.088Z,18.02
2018-01-04T02:22:26.287Z,16.10
2018-01-04T02:24:54.475Z,17.73
2018-01-04T02:27:22.655Z,25.02
2018-01-04T02:29:50.755Z,16.05
2018-01-04T02:32:18.846Z,21.10
2018-01-04T02:34:46.977Z,19.10
2018-01-04T02:37:15.240Z,13.73
2018-01-04T02:39:43.728Z,19.87
2018-01-04T02:42:12.046Z,19.37
2018-01-04T02:44:40.333Z,14.30
2018-01-04T02:47:08.640Z,17.40
2018-01-04T02:49:37.142Z,22.17
2018-01-04T02:52:05.416Z,15.30
2018-01-04T02:54:33.618Z,19.80
2018-01-04T02:57:01.809Z,20.12
2018-01-04T02:59:29.905Z,18.98
2018-01-04T03:01:58.102Z,18.73
2018-01-04T03:04:26.295Z,16.12
2018-01-04T03:06:54.490Z,17.83
2018-01-04T03:09:22.589Z,21.00
2018-01-04T03:11:50.769Z,23.15
2018-01-04T03:14:18.673Z,16.87
2018-01-04T03:16:46.850Z,12.98
2018-01-04T03:19:15.064Z,26.15
2018-01-04T03:21:43.352Z,15.05
2018-01-04T03:24:11.651Z,13.57
2018-01-04T03:26:39.949Z,12.07
2018-01-04T03:29:08.244Z,20.40
2018-01-04T03:31:36.541Z,23.55
2018-01-04T03:47:11.111Z,24.30
2018-01-04T03:49:39.236Z,20.35
2018-01-04T03:52:07.504Z,15.43
2018-01-04T03:54:35.789Z,18.50
2018-01-04T03:57:03.996Z,15.57
2018-01-04T03:59:32.081Z,16.05
2018-01-04T04:02:00.285Z,17.00
2018-01-04T04:04:28.360Z,18.70
2018-01-04T04:06:56.569Z,16.12
2018-01-04T04:09:24.646Z,21.35
2018-01-04T04:11:52.846Z,18.20
2018-01-04T04:14:21.052Z,16.77
2018-01-04T04:16:49.350Z,18.37
2018-01-04T04:19:17.439Z,22.65
2018-01-04T04:21:45.729Z,28.48
2018-01-04T04:24:13.914Z,22.62
2018-01-04T04:26:42.212Z,21.23
2018-01-04T04:29:10.515Z,18.02
2018-01-04T04:31:38.804Z,22.55
2018-01-04T04:34:06.842Z,24.63
2018-01-04T04:36:35.200Z,22.45
2018-01-04T04:39:03.298Z,21.92
2018-01-04T04:41:31.400Z,17.45
2018-01-04T04:43:59.787Z,24.75
2018-01-04T04:46:27.876Z,21.55
2018-01-04T04:48:56.065Z,19.42
2018-01-04T04:51:24.161Z,20.15
2018-01-04T04:53:52.354Z,24.25
2018-01-04T04:56:20.551Z,22.25
2018-01-04T04:58:48.756Z,28.87
2018-01-04T05:01:16.947Z,19.62
2018-01-04T05:03:45.252Z,30.62
2018-01-04T05:06:13.437Z,19.48
2018-01-04T05:08:41.725Z,18.92
2018-01-04T05:11:10.040Z,21.67
2018-01-04T05:13:38.325Z,25.30
2018-01-04T05:16:06.322Z,20.52
2018-01-04T05:18:34.395Z,21.83
2018-01-04T05:21:02.497Z,20.25
2018-01-04T05:23:30.689Z,23.00
2018-01-04T05:25:58.774Z,20.02
2018-01-04T05:28:26.981Z,21.25
2018-01-04T05:30:55.174Z,22.90
2018-01-04T05:33:23.374Z,20.23
2018-01-04T05:35:51.456Z,21.75
2018-01-04T05:38:19.654Z,27.40
2018-01-04T05:40:47.843Z,23.45
2018-01-04T05:43:16.153Z,28.92
2018-01-04T05:45:44.431Z,32.03
2018-01-04T05:48:12.744Z,22.98
2018-01-04T05:50:40.960Z,28.98
2018-01-04T05:53:09.438Z,20.83
2018-01-04T05:55:37.825Z,19.58
2018-01-04T05:58:05.951Z,20.98
2018-01-04T06:00:33.959Z,25.75
2018-01-04T06:03:02.104Z,22.52
2018-01-04T06:05:30.199Z,29.55
2018-01-04T06:07:58.434Z,24.85
2018-01-04T06:10:26.686Z,29.27
2018-01-04T06:12:54.891Z,28.00
2018-01-04T06:15:23.092Z,26.08
2018-01-04T06:17:51.275Z,36.78
2018-01-04T06:20:19.359Z,34.92
2018-01-04T06:22:47.755Z,26.50
2018-01-04T06:25:15.950Z,26.15
2018-01-04T06:27:44.247Z,28.95
2018-01-04T06:30:12.558Z,25.37
2018-01-04T06:32:40.856Z,27.25
2018-01-04T06:35:09.040Z,21.80
2018-01-04T06:37:37.251Z,31.87
2018-01-04T06:40:05.427Z,24.30
2018-01-04T06:42:33.474Z,18.12
2018-01-04T06:45:01.518Z,18.37
2018-01-04T06:47:29.715Z,21.27
2018-01-04T06:49:57.901Z,24.17
2018-01-04T06:52:28.544Z,22.67
2018-01-04T06:54:56.534Z,25.92
2018-01-04T06:57:25.458Z,25.90
2018-01-04T06:59:53.842Z,30.30
2018-01-04T07:02:22.041Z,29.12
2018-01-04T07:04:50.348Z,22.92
2018-01-04T07:07:18.637Z,25.45
2018-01-04T07:09:46.941Z,25.70
2018-01-04T07:12:15.336Z,28.00
2018-01-04T07:14:43.537Z,25.77
2018-01-04T07:17:11.880Z,27.05
2018-01-04T07:19:39.978Z,29.48
2018-01-04T07:22:08.217Z,25.10
2018-01-04T07:24:36.399Z,27.87
2018-01-04T07:27:04.500Z,27.87
2018-01-04T07:29:32.698Z,28.92
2018-01-04T07:32:00.780Z,38.15
2018-01-04T07:34:28.982Z,34.70
2018-01-04T07:36:57.187Z,26.25
2018-01-04T07:39:25.436Z,25.05
2018-01-04T07:41:53.675Z,32.08
2018-01-04T07:44:22.056Z,26.33
2018-01-04T07:46:50.264Z,24.08
2018-01-04T07:49:18.564Z,25.05
2018-01-04T07:51:46.746Z,22.35
2018-01-04T07:54:15.128Z,20.12
2018-01-04T07:56:43.438Z,22.73
2018-01-04T07:59:11.843Z,29.48
2018-01-04T08:01:39.830Z,26.48
2018-01-04T08:04:08.026Z,35.40
2018-01-04T08:06:36.221Z,26.50
2018-01-04T08:09:04.419Z,29.00
2018-01-04T08:11:32.521Z,34.55
2018-01-04T08:14:00.826Z,25.77
2018-01-04T08:16:29.003Z,19.65
2018-01-04T08:18:57.195Z,32.15
2018-01-04T08:21:25.281Z,19.67
2018-01-04T08:23:53.591Z,22.52
2018-01-04T08:26:21.985Z,27.25
2018-01-04T08:28:50.276Z,26.60
2018-01-04T08:31:18.477Z,28.45
2018-01-04T08:33:46.765Z,21.48
2018-01-04T08:36:14.859Z,21.08
2018-01-04T08:38:43.059Z,23.25
2018-01-04T08:41:11.260Z,22.10
2018-01-04T08:43:39.361Z,29.83
2018-01-04T08:46:07.438Z,25.27
2018-01-04T08:48:35.639Z,27.37
2018-01-04T08:51:03.834Z,26.77
2018-01-04T08:53:32.015Z,24.67
2018-01-04T08:56:00.126Z,23.65
2018-01-04T08:58:28.318Z,30.55
2018-01-04T09:00:56.396Z,23.62
2018-01-04T09:03:24.495Z,21.00
2018-01-04T09:05:52.676Z,34.45
2018-01-04T09:08:20.887Z,27.90
2018-01-04T09:10:48.966Z,25.90
2018-01-04T09:13:17.055Z,30.50
2018-01-04T09:15:45.258Z,26.50
2018-01-04T09:18:13.358Z,30.35
2018-01-04T09:20:41.546Z,30.25
2018-01-04T09:23:09.645Z,29.20
2018-01-04T09:25:37.826Z,33.05
2018-01-04T09:28:05.925Z,31.05
2018-01-04T09:30:33.965Z,32.83
2018-01-04T09:33:02.206Z,36.20
2018-01-04T09:35:30.404Z,30.58
2018-01-04T09:37:58.504Z,31.80
2018-01-04T09:40:26.683Z,27.42
2018-01-04T09:42:54.883Z,33.17
2018-01-04T09:45:23.084Z,39.45
2018-01-04T09:47:51.384Z,38.88
2018-01-04T09:50:19.562Z,37.42
2018-01-04T09:52:47.756Z,36.47
2018-01-04T09:55:15.955Z,40.38
2018-01-04T09:57:44.058Z,35.42
2018-01-04T10:00:12.235Z,42.28
2018-01-04T10:02:40.336Z,42.97
2018-01-04T10:05:08.541Z,36.95
2018-01-04T10:07:36.620Z,36.15
2018-01-04T10:10:04.820Z,40.58
2018-01-04T10:12:32.921Z,39.00
2018-01-04T10:15:00.998Z,37.92
2018-01-04T10:17:29.105Z,42.88
2018-01-04T10:19:57.396Z,39.00
2018-01-04T10:22:25.706Z,35.95
2018-01-04T10:24:53.987Z,37.05
2018-01-04T10:27:22.283Z,35.78
2018-01-04T10:29:50.477Z,35.85
2018-01-04T10:32:18.783Z,34.35
2018-01-04T10:34:47.067Z,34.58
2018-01-04T10:37:15.161Z,37.15
2018-01-04T10:39:43.354Z,37.15
2018-01-04T10:42:11.554Z,33.38
2018-01-04T10:44:39.751Z,31.27
2018-01-04T10:47:07.831Z,29.45
2018-01-04T10:49:36.040Z,35.40
2018-01-04T10:52:04.123Z,29.90
2018-01-04T10:54:32.421Z,32.63
2018-01-04T10:57:01.097Z,31.08
2018-01-04T10:59:30.341Z,42.20
2018-01-04T11:01:58.534Z,29.17
2018-01-04T11:04:26.729Z,30.45
2018-01-04T11:06:54.915Z,29.95
2018-01-04T11:09:23.126Z,27.25
2018-01-04T11:11:51.304Z,26.45
2018-01-04T11:14:19.502Z,30.98
2018-01-04T11:16:47.703Z,34.40
2018-01-04T11:19:15.892Z,38.40
2018-01-04T11:21:44.395Z,33.15
2018-01-04T11:24:12.700Z,33.92
2018-01-04T11:26:40.890Z,36.40
2018-01-04T11:29:09.094Z,27.42
2018-01-04T11:31:37.285Z,30.20
2018-01-04T11:34:05.481Z,27.80
2018-01-04T11:36:33.514Z,29.23
2018-01-04T11:39:01.666Z,26.42
2018-01-04T11:41:29.957Z,25.33
2018-01-04T11:43:58.248Z,31.90
2018-01-04T11:46:26.543Z,27.20
2018-01-04T11:48:54.948Z,24.37
2018-01-04T11:51:23.165Z,22.85
2018-01-04T11:53:51.436Z,32.80
2018-01-04T11:56:19.625Z,22.45
2018-01-04T11:58:47.733Z,28.27
2018-01-04T12:01:15.919Z,23.12
2018-01-04T12:03:44.002Z,23.48
2018-01-04T12:06:12.202Z,26.70
2018-01-04T12:08:40.305Z,25.83
2018-01-04T12:11:08.498Z,29.37
2018-01-04T12:13:36.688Z,29.58
2018-01-04T12:16:04.782Z,26.42
2018-01-04T12:18:32.880Z,28.10
2018-01-04T12:21:00.923Z,28.17
2018-01-04T12:23:29.254Z,26.67
2018-01-04T12:25:57.558Z,32.70
2018-01-04T12:28:25.637Z,30.65
2018-01-04T12:30:53.849Z,27.40
2018-01-04T12:33:21.924Z,36.30
2018-01-04T12:35:49.937Z,31.12
2018-01-04T12:38:18.010Z,28.08
2018-01-04T12:40:46.101Z,36.20
2018-01-04T12:43:14.303Z,29.30
2018-01-04T12:45:42.504Z,25.27
2018-01-04T12:48:10.599Z,27.27
2018-01-04T12:50:38.771Z,26.58
2018-01-04T12:53:06.881Z,30.90
2018-01-04T12:55:35.080Z,30.60
2018-01-04T12:58:03.265Z,30.37
2018-01-04T13:00:31.564Z,29.87
2018-01-04T13:02:59.746Z,28.65
2018-01-04T13:05:27.890Z,24.42
2018-01-04T13:07:56.140Z,23.95
2018-01-04T13:10:24.428Z,27.77
2018-01-04T13:12:52.742Z,26.70
2018-01-04T13:15:20.938Z,30.70
2018-01-04T13:17:49.120Z,25.08
2018-01-04T13:20:17.316Z,23.92
2018-01-04T13:22:45.404Z,34.65
2018-01-04T13:25:13.503Z,36.70
2018-01-04T13:27:41.697Z,24.87
2018-01-04T13:30:09.900Z,28.27
2018-01-04T13:32:38.085Z,30.45
2018-01-04T13:35:06.191Z,28.62
2018-01-04T13:37:34.371Z,27.33
2018-01-04T13:40:02.575Z,24.92
2018-01-04T13:42:30.963Z,32.80
2018-01-04T13:44:59.061Z,22.85
2018-01-04T13:47:27.273Z,31.75
2018-01-04T13:49:55.333Z,27.30
2018-01-04T13:52:23.533Z,24.30
2018-01-04T13:54:51.729Z,26.42
2018-01-04T13:57:19.926Z,28.87
2018-01-04T13:59:48.117Z,33.10
2018-01-04T14:02:16.323Z,29.87
2018-01-04T14:04:44.408Z,24.87
2018-01-04T14:07:12.697Z,26.77
2018-01-04T14:09:40.789Z,23.67
2018-01-04T14:12:08.997Z,24.20
2018-01-04T14:14:37.186Z,32.83
2018-01-04T14:17:05.478Z,29.05
2018-01-04T14:19:33.579Z,28.52
2018-01-04T14:22:01.674Z,22.25
2018-01-04T14:24:29.975Z,27.73
2018-01-04T14:26:58.274Z,25.02
2018-01-04T14:29:26.551Z,26.45
2018-01-04T14:31:54.556Z,32.17
2018-01-04T14:34:22.743Z,31.08
2018-01-04T14:36:50.944Z,25.77
2018-01-04T14:39:19.020Z,20.17
2018-01-04T14:41:47.125Z,22.08
2018-01-04T14:44:15.314Z,21.80
2018-01-04T14:46:43.518Z,23.38
2018-01-04T14:49:11.695Z,19.70
2018-01-04T14:51:39.907Z,26.17
2018-01-04T14:54:07.996Z,24.60
2018-01-04T14:56:36.177Z,24.02
2018-01-04T14:59:04.265Z,23.70
2018-01-04T15:01:32.481Z,26.45
2018-01-04T15:04:00.559Z,25.45
2018-01-04T15:06:28.758Z,33.38
2018-01-04T15:08:56.959Z,27.33
2018-01-04T15:11:25.144Z,22.35
2018-01-04T15:13:53.340Z,23.92
2018-01-04T15:16:21.345Z,24.42
2018-01-04T15:18:49.422Z,22.02
2018-01-04T15:21:17.510Z,21.98
2018-01-04T15:23:45.649Z,23.20
2018-01-04T15:26:13.906Z,25.92
2018-01-04T15:28:42.096Z,21.98
2018-01-04T15:31:10.299Z,25.40
2018-01-04T15:33:38.376Z,25.40
2018-01-04T15:36:06.690Z,34.15
2018-01-04T15:38:35.068Z,25.12
2018-01-04T15:41:03.283Z,19.95
2018-01-04T15:43:31.515Z,19.45
2018-01-04T15:45:59.864Z,17.90
2018-01-04T15:48:28.163Z,21.50
2018-01-04T15:50:57.183Z,32.28
2018-01-04T15:53:25.278Z,21.92
2018-01-04T15:55:53.464Z,23.70
2018-01-04T15:58:21.662Z,24.58
2018-01-04T16:00:49.859Z,21.27
2018-01-04T16:03:18.158Z,23.27
2018-01-04T16:05:46.242Z,23.20
2018-01-04T16:08:14.429Z,26.17
2018-01-04T16:10:42.624Z,21.70
2018-01-04T16:13:10.718Z,21.73
2018-01-04T16:15:39.022Z,23.35
2018-01-04T16:18:07.102Z,25.17
2018-01-04T16:20:35.195Z,25.20
2018-01-04T16:23:03.261Z,28.42
2018-01-04T16:25:31.485Z,26.02
2018-01-04T16:27:59.678Z,25.92
2018-01-04T16:30:27.767Z,20.88
2018-01-04T16:32:55.967Z,21.62
2018-01-04T16:35:24.048Z,26.73
2018-01-04T16:37:52.267Z,24.70
2018-01-04T16:40:20.444Z,23.58
2018-01-04T16:42:48.536Z,25.17
2018-01-04T16:45:16.731Z,25.35
2018-01-04T16:47:44.930Z,25.60
2018-01-04T16:50:13.134Z,28.08
2018-01-04T16:52:41.310Z,29.12
2018-01-04T16:55:09.535Z,24.63
2018-01-04T16:57:37.711Z,27.20
2018-01-04T17:00:05.903Z,30.48
2018-01-04T17:02:34.051Z,29.00
2018-01-04T17:05:02.195Z,28.35
2018-01-04T17:07:30.475Z,24.60
2018-01-04T17:09:58.676Z,28.00
2018-01-04T17:12:26.886Z,25.10
2018-01-04T17:14:54.993Z,29.52
2018-01-04T17:17:23.168Z,27.48
2018-01-04T17:19:51.246Z,26.42
2018-01-04T17:22:19.454Z,35.78
2018-01-04T17:24:47.627Z,25.83
2018-01-04T17:27:15.666Z,32.67
2018-01-04T17:29:43.726Z,30.60
2018-01-04T17:32:11.934Z,27.02
2018-01-04T17:34:40.007Z,31.48
2018-01-04T17:37:08.206Z,30.12
2018-01-04T17:39:36.406Z,25.58
2018-01-04T17:42:04.493Z,27.95
2018-01-04T17:44:32.685Z,30.17
2018-01-04T17:47:00.786Z,24.48
2018-01-04T17:49:28.965Z,28.35
2018-01-04T17:51:57.159Z,29.90
2018-01-04T17:54:25.370Z,31.23
2018-01-04T17:56:53.458Z,32.13
2018-01-04T17:59:21.639Z,29.65
2018-01-04T18:01:49.834Z,33.42
2018-01-04T18:04:18.035Z,36.58
2018-01-04T18:06:46.031Z,38.50
2018-01-04T18:09:14.224Z,37.65
2018-01-04T18:11:42.373Z,32.10
2018-01-04T18:14:10.607Z,38.42
2018-01-04T18:16:38.701Z,36.58
2018-01-04T18:19:06.887Z,34.72
2018-01-04T18:21:35.082Z,34.13
2018-01-04T18:24:03.282Z,34.00
2018-01-04T18:26:31.394Z,37.63
2018-01-04T18:28:59.583Z,32.05
2018-01-04T18:31:27.672Z,37.83
2018-01-04T18:33:55.856Z,35.05
2018-01-04T18:36:24.042Z,29.40
2018-01-04T18:38:52.238Z,33.58
2018-01-04T18:41:20.344Z,31.92
2018-01-04T18:43:48.537Z,29.45
2018-01-04T18:46:16.522Z,38.72
2018-01-04T18:48:44.708Z,32.38
2018-01-04T18:51:12.798Z,39.08
2018-01-04T18:53:41.319Z,35.05
2018-01-04T18:56:09.338Z,32.10
2018-01-04T18:58:37.398Z,35.83
2018-01-04T19:01:05.478Z,38.15
2018-01-04T19:03:33.678Z,28.42
2018-01-04T19:06:01.979Z,36.75
2018-01-04T19:08:30.178Z,26.08
2018-01-04T19:10:58.256Z,29.98
2018-01-04T19:13:26.471Z,31.55
2018-01-04T19:15:54.543Z,33.10
2018-01-04T19:18:22.744Z,31.00
2018-01-04T19:20:50.929Z,63.03
2018-01-04T19:23:19.128Z,96.68
2018-01-04T19:25:47.330Z,70.30
2018-01-04T19:28:15.515Z,49.80
2018-01-04T19:30:43.622Z,47.62
2018-01-04T19:33:11.805Z,66.03
2018-01-04T19:35:39.907Z,69.00
2018-01-04T19:38:08.089Z,54.97
2018-01-04T19:40:36.048Z,61.37
2018-01-04T19:43:04.381Z,39.85
2018-01-04T19:45:32.476Z,45.92
2018-01-04T19:48:00.655Z,34.92
2018-01-04T19:50:29.532Z,42.58
2018-01-04T19:52:57.570Z,35.20
2018-01-04T19:55:25.770Z,31.10
2018-01-04T19:57:53.966Z,29.37
2018-01-04T20:00:22.152Z,35.40
2018-01-04T20:02:50.244Z,34.78
2018-01-04T20:05:18.425Z,28.70
2018-01-04T20:07:46.626Z,28.38
2018-01-04T20:10:14.814Z,28.27
2018-01-04T20:12:42.814Z,29.52
2018-01-04T20:15:11.014Z,27.70
2018-01-04T20:17:39.094Z,31.27
2018-01-04T20:20:07.294Z,29.77
2018-01-04T20:22:35.495Z,29.45
2018-01-04T20:25:03.536Z,36.92
2018-01-04T20:27:31.674Z,31.10
2018-01-04T20:29:59.874Z,38.00
2018-01-04T20:32:27.954Z,40.70
2018-01-04T20:34:56.162Z,31.90
2018-01-04T20:37:24.254Z,36.90
2018-01-04T20:39:52.434Z,59.60
2018-01-04T20:42:20.536Z,47.10
2018-01-04T20:44:48.738Z,45.78
2018-01-04T20:47:16.914Z,34.60
2018-01-04T20:49:45.114Z,37.45
2018-01-04T20:52:13.214Z,34.97
2018-01-04T20:54:41.403Z,37.58
2018-01-04T20:57:09.593Z,36.25
2018-01-04T20:59:37.794Z,35.08
2018-01-04T21:02:05.877Z,32.20
2018-01-04T21:04:34.066Z,34.40
2018-01-04T21:07:02.072Z,41.17
2018-01-04T21:09:30.152Z,43.35
2018-01-04T21:11:58.097Z,40.70
2018-01-04T21:14:26.346Z,44.05
2018-01-04T21:16:54.437Z,42.62
2018-01-04T21:19:22.638Z,38.92
2018-01-04T21:21:50.723Z,41.15
2018-01-04T21:24:19.124Z,37.63
2018-01-04T21:26:47.224Z,37.28
2018-01-04T21:29:15.499Z,36.33
2018-01-04T21:31:43.806Z,33.50
2018-01-04T21:34:12.113Z,32.20
